sensor_id;sensor_type;location;lat;lon;timestamp;temperature;humidity
24224;DHT22;12359;49.716;9.212;2023-02-03T00:00:28;8.10;21.10
24224;DHT22;12359;49.716;9.212;2023-02-03T00:02:56;8.10;16.30
24224;DHT22;12359;49.716;9.212;2023-02-03T00:05:22;8.10;14.80
24224;DHT22;12359;49.716;9.212;2023-02-03T00:07:48;8.10;14.50
24224;DHT22;12359;49.716;9.212;2023-02-03T00:10:14;8.10;12.00
24224;DHT22;12359;49.716;9.212;2023-02-03T00:12:40;8.20;11.30
24224;DHT22;12359;49.716;9.212;2023-02-03T00:15:06;8.20;7.90
24224;DHT22;12359;49.716;9.212;2023-02-03T00:17:31;8.20;7.60
24224;DHT22;12359;49.716;9.212;2023-02-03T00:19:57;8.10;10.80
24224;DHT22;12359;49.716;9.212;2023-02-03T00:22:23;8.10;12.30
24224;DHT22;12359;49.716;9.212;2023-02-03T00:24:48;8.10;11.90
24224;DHT22;12359;49.716;9.212;2023-02-03T00:27:14;8.10;12.90
24224;DHT22;12359;49.716;9.212;2023-02-03T00:29:40;8.20;9.00
24224;DHT22;12359;49.716;9.212;2023-02-03T00:32:05;8.10;14.60
24224;DHT22;12359;49.716;9.212;2023-02-03T00:34:31;8.10;13.90
24224;DHT22;12359;49.716;9.212;2023-02-03T00:36:57;8.20;11.70
24224;DHT22;12359;49.716;9.212;2023-02-03T00:39:22;8.20;11.90
24224;DHT22;12359;49.716;9.212;2023-02-03T00:41:48;8.20;8.10
24224;DHT22;12359;49.716;9.212;2023-02-03T00:44:14;8.20;6.50
24224;DHT22;12359;49.716;9.212;2023-02-03T00:46:40;8.30;7.40
24224;DHT22;12359;49.716;9.212;2023-02-03T00:49:06;8.30;7.40
24224;DHT22;12359;49.716;9.212;2023-02-03T00:51:32;8.30;1.00
24224;DHT22;12359;49.716;9.212;2023-02-03T00:53:58;8.30;1.00
24224;DHT22;12359;49.716;9.212;2023-02-03T00:56:24;8.30;2.30
24224;DHT22;12359;49.716;9.212;2023-02-03T00:58:50;8.30;1.20
24224;DHT22;12359;49.716;9.212;2023-02-03T01:01:15;8.30;1.00
24224;DHT22;12359;49.716;9.212;2023-02-03T01:03:41;8.40;2.10
24224;DHT22;12359;49.716;9.212;2023-02-03T01:06:12;8.40;4.70
24224;DHT22;12359;49.716;9.212;2023-02-03T01:08:39;8.40;6.00
24224;DHT22;12359;49.716;9.212;2023-02-03T01:11:09;8.40;1.00
24224;DHT22;12359;49.716;9.212;2023-02-03T01:13:35;8.50;1.00
24224;DHT22;12359;49.716;9.212;2023-02-03T01:16:01;8.50;1.00
24224;DHT22;12359;49.716;9.212;2023-02-03T01:18:27;8.50;1.00
24224;DHT22;12359;49.716;9.212;2023-02-03T01:20:54;8.50;1.00
24224;DHT22;12359;49.716;9.212;2023-02-03T01:23:19;8.50;1.00
24224;DHT22;12359;49.716;9.212;2023-02-03T01:25:45;8.50;1.00
24224;DHT22;12359;49.716;9.212;2023-02-03T01:28:11;8.50;1.00
24224;DHT22;12359;49.716;9.212;2023-02-03T01:30:36;8.50;1.00
24224;DHT22;12359;49.716;9.212;2023-02-03T01:33:02;8.50;1.00
24224;DHT22;12359;49.716;9.212;2023-02-03T01:35:28;8.60;1.00
24224;DHT22;12359;49.716;9.212;2023-02-03T01:37:53;8.60;1.00
24224;DHT22;12359;49.716;9.212;2023-02-03T01:40:19;8.60;1.00
24224;DHT22;12359;49.716;9.212;2023-02-03T01:42:45;8.60;1.00
24224;DHT22;12359;49.716;9.212;2023-02-03T01:45:10;8.60;1.00
24224;DHT22;12359;49.716;9.212;2023-02-03T01:47:47;8.50;1.00
24224;DHT22;12359;49.716;9.212;2023-02-03T01:52:58;8.50;1.00
24224;DHT22;12359;49.716;9.212;2023-02-03T01:55:36;8.50;1.00
24224;DHT22;12359;49.716;9.212;2023-02-03T01:58:15;8.50;1.00
24224;DHT22;12359;49.716;9.212;2023-02-03T02:00:44;8.50;1.00
24224;DHT22;12359;49.716;9.212;2023-02-03T02:03:09;8.50;1.00
24224;DHT22;12359;49.716;9.212;2023-02-03T02:06:05;8.50;1.00
24224;DHT22;12359;49.716;9.212;2023-02-03T02:08:31;8.60;1.00
24224;DHT22;12359;49.716;9.212;2023-02-03T02:10:58;8.60;1.00
24224;DHT22;12359;49.716;9.212;2023-02-03T02:13:25;8.60;1.00
24224;DHT22;12359;49.716;9.212;2023-02-03T02:16:21;8.60;1.00
24224;DHT22;12359;49.716;9.212;2023-02-03T02:19:29;8.60;1.00
24224;DHT22;12359;49.716;9.212;2023-02-03T02:22:16;8.60;1.00
24224;DHT22;12359;49.716;9.212;2023-02-03T02:33:04;8.60;1.00
24224;DHT22;12359;49.716;9.212;2023-02-03T02:46:23;8.50;1.00
24224;DHT22;12359;49.716;9.212;2023-02-03T02:49:05;8.50;1.90
24224;DHT22;12359;49.716;9.212;2023-02-03T02:51:35;8.50;5.10
24224;DHT22;12359;49.716;9.212;2023-02-03T02:54:06;8.50;12.00
24224;DHT22;12359;49.716;9.212;2023-02-03T02:56:33;8.40;17.30
24224;DHT22;12359;49.716;9.212;2023-02-03T02:59:02;8.40;18.30
24224;DHT22;12359;49.716;9.212;2023-02-03T03:01:29;8.40;18.60
24224;DHT22;12359;49.716;9.212;2023-02-03T03:03:56;8.30;23.40
24224;DHT22;12359;49.716;9.212;2023-02-03T03:06:28;8.40;22.00
24224;DHT22;12359;49.716;9.212;2023-02-03T03:08:59;8.40;21.60
24224;DHT22;12359;49.716;9.212;2023-02-03T03:11:30;8.40;23.10
24224;DHT22;12359;49.716;9.212;2023-02-03T03:13:58;8.40;23.10
24224;DHT22;12359;49.716;9.212;2023-02-03T03:16:27;8.40;23.10
24224;DHT22;12359;49.716;9.212;2023-02-03T03:19:16;8.40;23.50
24224;DHT22;12359;49.716;9.212;2023-02-03T03:21:48;8.30;28.80
24224;DHT22;12359;49.716;9.212;2023-02-03T03:24:21;8.30;34.10
24224;DHT22;12359;49.716;9.212;2023-02-03T03:27:05;8.40;35.70
24224;DHT22;12359;49.716;9.212;2023-02-03T03:29:34;8.30;40.30
24224;DHT22;12359;49.716;9.212;2023-02-03T03:32:03;8.30;40.60
24224;DHT22;12359;49.716;9.212;2023-02-03T03:34:29;8.30;44.60
24224;DHT22;12359;49.716;9.212;2023-02-03T03:37:54;8.30;43.80
24224;DHT22;12359;49.716;9.212;2023-02-03T03:40:06;8.20;47.40
24224;DHT22;12359;49.716;9.212;2023-02-03T03:42:58;8.20;48.10
24224;DHT22;12359;49.716;9.212;2023-02-03T03:45:54;8.20;49.10
24224;DHT22;12359;49.716;9.212;2023-02-03T03:51:04;8.20;52.80
24224;DHT22;12359;49.716;9.212;2023-02-03T03:53:33;8.20;54.70
24224;DHT22;12359;49.716;9.212;2023-02-03T03:56:02;8.20;55.90
24224;DHT22;12359;49.716;9.212;2023-02-03T03:58:31;8.10;55.60
24224;DHT22;12359;49.716;9.212;2023-02-03T04:01:02;8.20;55.90
24224;DHT22;12359;49.716;9.212;2023-02-03T04:03:45;8.20;55.20
24224;DHT22;12359;49.716;9.212;2023-02-03T04:06:13;8.20;54.30
24224;DHT22;12359;49.716;9.212;2023-02-03T04:08:39;8.20;56.90
24224;DHT22;12359;49.716;9.212;2023-02-03T04:11:05;8.10;57.00
24224;DHT22;12359;49.716;9.212;2023-02-03T04:13:31;8.10;57.80
24224;DHT22;12359;49.716;9.212;2023-02-03T04:15:56;8.10;62.60
24224;DHT22;12359;49.716;9.212;2023-02-03T04:18:22;8.10;63.00
24224;DHT22;12359;49.716;9.212;2023-02-03T04:20:48;8.10;61.40
24224;DHT22;12359;49.716;9.212;2023-02-03T04:23:13;8.10;58.20
24224;DHT22;12359;49.716;9.212;2023-02-03T04:25:39;8.10;57.90
24224;DHT22;12359;49.716;9.212;2023-02-03T04:28:05;8.10;56.90
24224;DHT22;12359;49.716;9.212;2023-02-03T04:30:31;8.10;55.30
24224;DHT22;12359;49.716;9.212;2023-02-03T04:32:56;8.20;55.60
24224;DHT22;12359;49.716;9.212;2023-02-03T04:35:22;8.10;55.60
24224;DHT22;12359;49.716;9.212;2023-02-03T04:37:48;8.20;54.20
24224;DHT22;12359;49.716;9.212;2023-02-03T04:40:13;8.20;54.70
24224;DHT22;12359;49.716;9.212;2023-02-03T04:42:40;8.20;53.10
24224;DHT22;12359;49.716;9.212;2023-02-03T04:45:07;8.20;52.40
24224;DHT22;12359;49.716;9.212;2023-02-03T04:47:34;8.20;47.60
24224;DHT22;12359;49.716;9.212;2023-02-03T04:49:59;8.20;51.10
24224;DHT22;12359;49.716;9.212;2023-02-03T04:52:25;8.20;51.60
24224;DHT22;12359;49.716;9.212;2023-02-03T04:54:51;8.20;51.10
24224;DHT22;12359;49.716;9.212;2023-02-03T04:57:17;8.20;47.80
24224;DHT22;12359;49.716;9.212;2023-02-03T04:59:42;8.20;49.70
24224;DHT22;12359;49.716;9.212;2023-02-03T05:02:08;8.20;47.80
24224;DHT22;12359;49.716;9.212;2023-02-03T05:04:34;8.20;43.40
24224;DHT22;12359;49.716;9.212;2023-02-03T05:06:59;8.20;43.40
24224;DHT22;12359;49.716;9.212;2023-02-03T05:09:25;8.30;45.00
24224;DHT22;12359;49.716;9.212;2023-02-03T05:11:52;8.20;44.50
24224;DHT22;12359;49.716;9.212;2023-02-03T05:14:18;8.20;41.90
24224;DHT22;12359;49.716;9.212;2023-02-03T05:16:44;8.20;39.90
24224;DHT22;12359;49.716;9.212;2023-02-03T05:19:10;8.20;41.20
24224;DHT22;12359;49.716;9.212;2023-02-03T05:21:35;8.20;40.00
24224;DHT22;12359;49.716;9.212;2023-02-03T05:24:01;8.20;39.00
24224;DHT22;12359;49.716;9.212;2023-02-03T05:26:28;8.30;36.50
24224;DHT22;12359;49.716;9.212;2023-02-03T05:28:54;8.20;34.00
24224;DHT22;12359;49.716;9.212;2023-02-03T05:31:19;8.30;31.70
24224;DHT22;12359;49.716;9.212;2023-02-03T05:33:45;8.30;34.20
24224;DHT22;12359;49.716;9.212;2023-02-03T05:36:10;8.30;35.70
24224;DHT22;12359;49.716;9.212;2023-02-03T05:38:36;8.30;35.20
24224;DHT22;12359;49.716;9.212;2023-02-03T05:41:02;8.30;35.70
24224;DHT22;12359;49.716;9.212;2023-02-03T05:43:46;8.30;29.00
24224;DHT22;12359;49.716;9.212;2023-02-03T05:46:11;8.30;33.40
24224;DHT22;12359;49.716;9.212;2023-02-03T05:48:37;8.30;29.70
24224;DHT22;12359;49.716;9.212;2023-02-03T05:51:03;8.20;35.90
24224;DHT22;12359;49.716;9.212;2023-02-03T05:53:28;8.30;37.40
24224;DHT22;12359;49.716;9.212;2023-02-03T05:55:54;8.30;35.60
24224;DHT22;12359;49.716;9.212;2023-02-03T05:58:20;8.30;36.40
24224;DHT22;12359;49.716;9.212;2023-02-03T06:00:45;8.30;39.60
24224;DHT22;12359;49.716;9.212;2023-02-03T06:03:11;8.30;38.90
24224;DHT22;12359;49.716;9.212;2023-02-03T06:05:37;8.30;37.20
24224;DHT22;12359;49.716;9.212;2023-02-03T06:08:08;8.30;39.80
24224;DHT22;12359;49.716;9.212;2023-02-03T06:10:34;8.30;38.30
24224;DHT22;12359;49.716;9.212;2023-02-03T06:13:06;8.20;40.70
24224;DHT22;12359;49.716;9.212;2023-02-03T06:15:31;8.20;37.40
24224;DHT22;12359;49.716;9.212;2023-02-03T06:17:57;8.20;33.90
24224;DHT22;12359;49.716;9.212;2023-02-03T06:20:23;8.20;37.50
24224;DHT22;12359;49.716;9.212;2023-02-03T06:22:48;8.20;37.40
24224;DHT22;12359;49.716;9.212;2023-02-03T06:25:14;8.20;38.70
24224;DHT22;12359;49.716;9.212;2023-02-03T06:27:40;8.20;40.30
24224;DHT22;12359;49.716;9.212;2023-02-03T06:30:07;8.20;36.10
24224;DHT22;12359;49.716;9.212;2023-02-03T06:32:32;8.20;33.50
24224;DHT22;12359;49.716;9.212;2023-02-03T06:34:58;8.20;33.90
24224;DHT22;12359;49.716;9.212;2023-02-03T06:37:24;8.20;33.70
24224;DHT22;12359;49.716;9.212;2023-02-03T06:39:49;8.20;36.40
24224;DHT22;12359;49.716;9.212;2023-02-03T06:42:15;8.20;35.80
24224;DHT22;12359;49.716;9.212;2023-02-03T06:44:40;8.20;32.70
24224;DHT22;12359;49.716;9.212;2023-02-03T06:47:06;8.20;31.20
24224;DHT22;12359;49.716;9.212;2023-02-03T06:49:32;8.30;31.60
24224;DHT22;12359;49.716;9.212;2023-02-03T06:51:57;8.30;28.80
24224;DHT22;12359;49.716;9.212;2023-02-03T06:54:23;8.30;30.50
24224;DHT22;12359;49.716;9.212;2023-02-03T06:56:49;8.30;27.40
24224;DHT22;12359;49.716;9.212;2023-02-03T06:59:14;8.30;23.00
24224;DHT22;12359;49.716;9.212;2023-02-03T07:01:40;8.30;25.40
24224;DHT22;12359;49.716;9.212;2023-02-03T07:04:06;8.40;24.90
24224;DHT22;12359;49.716;9.212;2023-02-03T07:06:31;8.40;23.40
24224;DHT22;12359;49.716;9.212;2023-02-03T07:09:03;8.40;17.60
24224;DHT22;12359;49.716;9.212;2023-02-03T07:11:29;8.40;17.80
24224;DHT22;12359;49.716;9.212;2023-02-03T07:13:55;8.40;17.60
24224;DHT22;12359;49.716;9.212;2023-02-03T07:16:20;8.40;18.30
24224;DHT22;12359;49.716;9.212;2023-02-03T07:18:46;8.40;14.70
24224;DHT22;12359;49.716;9.212;2023-02-03T07:21:12;8.40;16.40
24224;DHT22;12359;49.716;9.212;2023-02-03T07:23:38;8.40;20.00
24224;DHT22;12359;49.716;9.212;2023-02-03T07:26:05;8.40;17.00
24224;DHT22;12359;49.716;9.212;2023-02-03T07:28:32;8.40;16.00
24224;DHT22;12359;49.716;9.212;2023-02-03T07:30:58;8.50;18.80
24224;DHT22;12359;49.716;9.212;2023-02-03T07:33:26;8.50;15.80
24224;DHT22;12359;49.716;9.212;2023-02-03T07:35:56;8.50;12.60
24224;DHT22;12359;49.716;9.212;2023-02-03T07:38:24;8.50;12.60
24224;DHT22;12359;49.716;9.212;2023-02-03T07:40:50;8.50;9.80
24224;DHT22;12359;49.716;9.212;2023-02-03T07:43:16;8.50;12.00
24224;DHT22;12359;49.716;9.212;2023-02-03T07:45:42;8.60;1.00
24224;DHT22;12359;49.716;9.212;2023-02-03T07:48:07;8.60;1.00
24224;DHT22;12359;49.716;9.212;2023-02-03T07:50:33;8.60;1.00
24224;DHT22;12359;49.716;9.212;2023-02-03T07:53:00;8.60;1.00
24224;DHT22;12359;49.716;9.212;2023-02-03T07:55:26;8.60;1.00
24224;DHT22;12359;49.716;9.212;2023-02-03T07:57:55;8.60;1.00
24224;DHT22;12359;49.716;9.212;2023-02-03T08:00:22;8.70;1.00
24224;DHT22;12359;49.716;9.212;2023-02-03T08:02:48;8.70;1.00
24224;DHT22;12359;49.716;9.212;2023-02-03T08:05:14;8.70;1.00
24224;DHT22;12359;49.716;9.212;2023-02-03T08:07:40;8.70;1.00
24224;DHT22;12359;49.716;9.212;2023-02-03T08:10:06;8.80;1.00
24224;DHT22;12359;49.716;9.212;2023-02-03T08:12:33;8.80;1.00
24224;DHT22;12359;49.716;9.212;2023-02-03T08:14:59;8.80;1.00
24224;DHT22;12359;49.716;9.212;2023-02-03T08:17:24;8.80;1.00
24224;DHT22;12359;49.716;9.212;2023-02-03T08:19:50;8.80;1.00
24224;DHT22;12359;49.716;9.212;2023-02-03T08:22:16;8.80;1.00
24224;DHT22;12359;49.716;9.212;2023-02-03T08:24:42;8.80;1.00
24224;DHT22;12359;49.716;9.212;2023-02-03T08:27:15;8.80;1.00
24224;DHT22;12359;49.716;9.212;2023-02-03T08:29:41;8.90;1.00
24224;DHT22;12359;49.716;9.212;2023-02-03T08:32:26;8.90;1.00
24224;DHT22;12359;49.716;9.212;2023-02-03T08:34:52;8.90;1.00
24224;DHT22;12359;49.716;9.212;2023-02-03T08:37:21;8.90;1.00
24224;DHT22;12359;49.716;9.212;2023-02-03T08:39:48;8.90;1.00
24224;DHT22;12359;49.716;9.212;2023-02-03T08:42:14;8.90;1.00
24224;DHT22;12359;49.716;9.212;2023-02-03T08:44:42;8.90;1.00
24224;DHT22;12359;49.716;9.212;2023-02-03T08:47:09;9.00;1.00
24224;DHT22;12359;49.716;9.212;2023-02-03T08:49:35;9.00;1.00
24224;DHT22;12359;49.716;9.212;2023-02-03T08:52:04;9.00;1.00
24224;DHT22;12359;49.716;9.212;2023-02-03T08:54:30;9.00;1.00
24224;DHT22;12359;49.716;9.212;2023-02-03T08:56:56;9.10;1.00
24224;DHT22;12359;49.716;9.212;2023-02-03T08:59:22;9.10;1.00
24224;DHT22;12359;49.716;9.212;2023-02-03T09:01:48;9.10;1.00
24224;DHT22;12359;49.716;9.212;2023-02-03T09:04:16;9.20;1.00
24224;DHT22;12359;49.716;9.212;2023-02-03T09:06:50;9.20;1.00
24224;DHT22;12359;49.716;9.212;2023-02-03T09:09:16;9.30;1.00
24224;DHT22;12359;49.716;9.212;2023-02-03T09:11:42;9.30;1.00
24224;DHT22;12359;49.716;9.212;2023-02-03T09:14:08;9.30;1.00
24224;DHT22;12359;49.716;9.212;2023-02-03T09:16:34;9.30;1.00
24224;DHT22;12359;49.716;9.212;2023-02-03T09:19:00;9.30;1.00
24224;DHT22;12359;49.716;9.212;2023-02-03T09:21:26;9.40;1.00
24224;DHT22;12359;49.716;9.212;2023-02-03T09:23:52;9.40;1.00
24224;DHT22;12359;49.716;9.212;2023-02-03T09:26:17;9.40;1.00
24224;DHT22;12359;49.716;9.212;2023-02-03T09:28:43;9.40;99.90
24224;DHT22;12359;49.716;9.212;2023-02-03T09:31:11;9.40;99.90
24224;DHT22;12359;49.716;9.212;2023-02-03T09:33:38;9.40;99.90
24224;DHT22;12359;49.716;9.212;2023-02-03T09:36:04;9.40;99.90
24224;DHT22;12359;49.716;9.212;2023-02-03T09:38:31;9.40;99.90
24224;DHT22;12359;49.716;9.212;2023-02-03T09:41:09;9.40;99.90
24224;DHT22;12359;49.716;9.212;2023-02-03T09:44:03;9.50;1.00
24224;DHT22;12359;49.716;9.212;2023-02-03T09:46:34;9.50;99.90
24224;DHT22;12359;49.716;9.212;2023-02-03T09:49:40;9.50;99.90
24224;DHT22;12359;49.716;9.212;2023-02-03T09:52:24;9.50;99.90
24224;DHT22;12359;49.716;9.212;2023-02-03T09:55:13;9.50;99.90
24224;DHT22;12359;49.716;9.212;2023-02-03T09:58:02;9.50;99.90
24224;DHT22;12359;49.716;9.212;2023-02-03T10:00:34;9.50;99.90
24224;DHT22;12359;49.716;9.212;2023-02-03T10:03:06;9.60;99.90
24224;DHT22;12359;49.716;9.212;2023-02-03T10:05:50;9.60;99.90
24224;DHT22;12359;49.716;9.212;2023-02-03T10:22:03;9.80;99.90
24224;DHT22;12359;49.716;9.212;2023-02-03T10:24:39;9.80;99.90
24224;DHT22;12359;49.716;9.212;2023-02-03T10:27:07;9.80;99.90
24224;DHT22;12359;49.716;9.212;2023-02-03T10:29:37;9.90;99.90
24224;DHT22;12359;49.716;9.212;2023-02-03T10:32:11;9.90;99.90
24224;DHT22;12359;49.716;9.212;2023-02-03T10:34:38;9.90;99.90
24224;DHT22;12359;49.716;9.212;2023-02-03T10:37:14;10.00;99.90
24224;DHT22;12359;49.716;9.212;2023-02-03T10:39:45;10.00;99.90
24224;DHT22;12359;49.716;9.212;2023-02-03T10:42:12;10.10;62.60
24224;DHT22;12359;49.716;9.212;2023-02-03T10:44:50;10.20;48.20
24224;DHT22;12359;49.716;9.212;2023-02-03T10:47:44;10.30;1.00
24224;DHT22;12359;49.716;9.212;2023-02-03T10:50:16;10.40;1.00
24224;DHT22;12359;49.716;9.212;2023-02-03T10:52:43;10.40;1.00
24224;DHT22;12359;49.716;9.212;2023-02-03T10:57:50;10.40;99.90
24224;DHT22;12359;49.716;9.212;2023-02-03T11:00:30;10.40;99.90
24224;DHT22;12359;49.716;9.212;2023-02-03T11:03:07;10.40;52.40
24224;DHT22;12359;49.716;9.212;2023-02-03T11:05:41;10.30;99.90
24224;DHT22;12359;49.716;9.212;2023-02-03T11:08:14;10.30;99.90
24224;DHT22;12359;49.716;9.212;2023-02-03T11:10:40;10.40;99.90
24224;DHT22;12359;49.716;9.212;2023-02-03T11:13:20;10.50;99.90
24224;DHT22;12359;49.716;9.212;2023-02-03T11:15:56;10.50;99.90
24224;DHT22;12359;49.716;9.212;2023-02-03T11:21:31;10.70;1.00
24224;DHT22;12359;49.716;9.212;2023-02-03T11:26:34;10.60;1.00
24224;DHT22;12359;49.716;9.212;2023-02-03T11:29:02;10.50;1.00
24224;DHT22;12359;49.716;9.212;2023-02-03T11:31:32;10.40;51.90
24224;DHT22;12359;49.716;9.212;2023-02-03T11:34:18;10.40;1.00
24224;DHT22;12359;49.716;9.212;2023-02-03T11:36:44;10.40;1.00
24224;DHT22;12359;49.716;9.212;2023-02-03T11:39:28;10.30;96.90
24224;DHT22;12359;49.716;9.212;2023-02-03T11:41:55;10.30;99.90
24224;DHT22;12359;49.716;9.212;2023-02-03T11:47:03;10.20;99.90
24224;DHT22;12359;49.716;9.212;2023-02-03T12:00:43;10.10;1.00
24224;DHT22;12359;49.716;9.212;2023-02-03T12:06:05;10.20;27.40
24224;DHT22;12359;49.716;9.212;2023-02-03T12:11:28;10.10;68.10
24224;DHT22;12359;49.716;9.212;2023-02-03T12:19:50;10.10;99.90
24224;DHT22;12359;49.716;9.212;2023-02-03T12:22:25;10.10;99.90
24224;DHT22;12359;49.716;9.212;2023-02-03T12:27:53;10.10;99.90
24224;DHT22;12359;49.716;9.212;2023-02-03T12:30:40;10.10;99.90
24224;DHT22;12359;49.716;9.212;2023-02-03T12:33:22;10.10;99.90
24224;DHT22;12359;49.716;9.212;2023-02-03T12:36:08;10.20;99.90
24224;DHT22;12359;49.716;9.212;2023-02-03T12:38:41;10.20;99.90
24224;DHT22;12359;49.716;9.212;2023-02-03T12:41:21;10.30;99.90
24224;DHT22;12359;49.716;9.212;2023-02-03T12:43:53;10.40;99.90
24224;DHT22;12359;49.716;9.212;2023-02-03T12:46:30;10.50;99.90
24224;DHT22;12359;49.716;9.212;2023-02-03T12:51:46;10.50;99.90
24224;DHT22;12359;49.716;9.212;2023-02-03T12:56:54;10.40;48.20
24224;DHT22;12359;49.716;9.212;2023-02-03T12:59:24;10.40;99.90
24224;DHT22;12359;49.716;9.212;2023-02-03T13:01:56;10.30;99.90
24224;DHT22;12359;49.716;9.212;2023-02-03T13:04:42;10.30;99.90
24224;DHT22;12359;49.716;9.212;2023-02-03T13:07:47;10.30;99.90
24224;DHT22;12359;49.716;9.212;2023-02-03T13:10:21;10.30;99.90
24224;DHT22;12359;49.716;9.212;2023-02-03T13:12:54;10.30;99.90
24224;DHT22;12359;49.716;9.212;2023-02-03T13:15:26;10.30;99.90
24224;DHT22;12359;49.716;9.212;2023-02-03T13:20:44;10.20;99.90
24224;DHT22;12359;49.716;9.212;2023-02-03T13:23:12;10.10;99.90
24224;DHT22;12359;49.716;9.212;2023-02-03T13:26:07;10.00;99.90
24224;DHT22;12359;49.716;9.212;2023-02-03T13:31:44;10.00;99.90
24224;DHT22;12359;49.716;9.212;2023-02-03T13:44:36;10.10;99.90
24224;DHT22;12359;49.716;9.212;2023-02-03T13:47:04;10.10;99.90
24224;DHT22;12359;49.716;9.212;2023-02-03T13:49:32;10.10;99.90
24224;DHT22;12359;49.716;9.212;2023-02-03T13:51:59;10.10;99.90
24224;DHT22;12359;49.716;9.212;2023-02-03T13:54:34;10.10;99.90
24224;DHT22;12359;49.716;9.212;2023-02-03T13:57:03;10.10;99.90
24224;DHT22;12359;49.716;9.212;2023-02-03T13:59:41;10.00;99.90
24224;DHT22;12359;49.716;9.212;2023-02-03T14:02:41;10.00;99.90
24224;DHT22;12359;49.716;9.212;2023-02-03T14:05:40;10.00;1.00
24224;DHT22;12359;49.716;9.212;2023-02-03T14:19:00;9.80;1.00
24224;DHT22;12359;49.716;9.212;2023-02-03T14:21:36;9.80;1.00
24224;DHT22;12359;49.716;9.212;2023-02-03T14:24:06;9.80;1.00
24224;DHT22;12359;49.716;9.212;2023-02-03T14:26:45;9.80;1.00
24224;DHT22;12359;49.716;9.212;2023-02-03T14:29:42;9.80;1.00
24224;DHT22;12359;49.716;9.212;2023-02-03T14:32:10;9.90;1.00
24224;DHT22;12359;49.716;9.212;2023-02-03T14:34:47;9.80;1.00
24224;DHT22;12359;49.716;9.212;2023-02-03T14:37:30;9.80;1.00
24224;DHT22;12359;49.716;9.212;2023-02-03T14:40:27;9.70;1.00
24224;DHT22;12359;49.716;9.212;2023-02-03T14:44:01;9.70;1.00
24224;DHT22;12359;49.716;9.212;2023-02-03T14:49:51;9.70;1.00
24224;DHT22;12359;49.716;9.212;2023-02-03T14:58:15;9.60;1.00
24224;DHT22;12359;49.716;9.212;2023-02-03T15:00:43;9.60;5.40
24224;DHT22;12359;49.716;9.212;2023-02-03T15:05:46;9.50;16.20
24224;DHT22;12359;49.716;9.212;2023-02-03T15:08:44;9.50;14.80
24224;DHT22;12359;49.716;9.212;2023-02-03T15:11:32;9.50;23.10
24224;DHT22;12359;49.716;9.212;2023-02-03T15:14:33;9.40;26.80
24224;DHT22;12359;49.716;9.212;2023-02-03T15:17:01;9.40;35.10
24224;DHT22;12359;49.716;9.212;2023-02-03T15:19:36;9.30;34.20
24224;DHT22;12359;49.716;9.212;2023-02-03T15:22:17;9.30;42.50
24224;DHT22;12359;49.716;9.212;2023-02-03T15:24:43;9.30;46.50
24224;DHT22;12359;49.716;9.212;2023-02-03T15:27:24;9.20;48.80
24224;DHT22;12359;49.716;9.212;2023-02-03T15:29:50;9.20;46.70
24224;DHT22;12359;49.716;9.212;2023-02-03T15:34:49;9.10;49.00
24224;DHT22;12359;49.716;9.212;2023-02-03T15:40:00;9.10;56.00
24224;DHT22;12359;49.716;9.212;2023-02-03T15:47:44;9.00;57.80
24224;DHT22;12359;49.716;9.212;2023-02-03T15:50:33;9.00;54.60
24224;DHT22;12359;49.716;9.212;2023-02-03T15:53:08;9.00;55.00
24224;DHT22;12359;49.716;9.212;2023-02-03T15:55:46;9.40;68.90
24224;DHT22;12359;49.716;9.212;2023-02-03T16:00:56;10.10;38.80
24224;DHT22;12359;49.716;9.212;2023-02-03T16:03:39;10.00;26.50
24224;DHT22;12359;49.716;9.212;2023-02-03T16:06:17;9.80;26.80
24224;DHT22;12359;49.716;9.212;2023-02-03T16:08:45;9.60;32.90
24224;DHT22;12359;49.716;9.212;2023-02-03T16:11:24;9.60;39.00
24224;DHT22;12359;49.716;9.212;2023-02-03T16:13:51;9.40;45.80
24224;DHT22;12359;49.716;9.212;2023-02-03T16:16:47;9.30;47.20
24224;DHT22;12359;49.716;9.212;2023-02-03T16:19:20;9.20;53.10
24224;DHT22;12359;49.716;9.212;2023-02-03T16:27:18;9.10;58.20
24224;DHT22;12359;49.716;9.212;2023-02-03T16:29:46;9.10;61.10
24224;DHT22;12359;49.716;9.212;2023-02-03T16:32:30;9.10;65.50
24224;DHT22;12359;49.716;9.212;2023-02-03T16:35:14;9.10;67.50
24224;DHT22;12359;49.716;9.212;2023-02-03T16:38:15;9.10;70.60
24224;DHT22;12359;49.716;9.212;2023-02-03T16:41:00;9.00;69.90
24224;DHT22;12359;49.716;9.212;2023-02-03T16:43:45;9.00;69.20
24224;DHT22;12359;49.716;9.212;2023-02-03T16:46:29;9.10;72.20
24224;DHT22;12359;49.716;9.212;2023-02-03T16:49:13;9.00;71.20
24224;DHT22;12359;49.716;9.212;2023-02-03T16:51:57;9.00;72.50
24224;DHT22;12359;49.716;9.212;2023-02-03T16:54:23;9.10;74.40
24224;DHT22;12359;49.716;9.212;2023-02-03T16:56:49;9.00;73.70
24224;DHT22;12359;49.716;9.212;2023-02-03T16:59:16;9.00;74.30
24224;DHT22;12359;49.716;9.212;2023-02-03T17:01:42;9.10;75.80
24224;DHT22;12359;49.716;9.212;2023-02-03T17:04:08;9.10;72.60
24224;DHT22;12359;49.716;9.212;2023-02-03T17:06:39;9.10;70.70
24224;DHT22;12359;49.716;9.212;2023-02-03T17:09:06;9.10;71.00
24224;DHT22;12359;49.716;9.212;2023-02-03T17:11:32;9.10;69.10
24224;DHT22;12359;49.716;9.212;2023-02-03T17:13:58;9.10;68.20
24224;DHT22;12359;49.716;9.212;2023-02-03T17:16:25;9.10;67.50
24224;DHT22;12359;49.716;9.212;2023-02-03T17:18:52;9.10;68.40
24224;DHT22;12359;49.716;9.212;2023-02-03T17:21:26;9.10;69.00
24224;DHT22;12359;49.716;9.212;2023-02-03T17:23:52;9.10;63.20
24224;DHT22;12359;49.716;9.212;2023-02-03T17:26:18;9.20;60.30
24224;DHT22;12359;49.716;9.212;2023-02-03T17:28:44;9.20;62.40
24224;DHT22;12359;49.716;9.212;2023-02-03T17:31:13;9.20;60.90
24224;DHT22;12359;49.716;9.212;2023-02-03T17:33:39;9.20;62.10
24224;DHT22;12359;49.716;9.212;2023-02-03T17:36:06;9.20;59.30
24224;DHT22;12359;49.716;9.212;2023-02-03T17:38:41;9.20;63.00
24224;DHT22;12359;49.716;9.212;2023-02-03T17:41:12;9.20;60.60
24224;DHT22;12359;49.716;9.212;2023-02-03T17:43:38;9.20;60.30
24224;DHT22;12359;49.716;9.212;2023-02-03T17:46:04;9.20;62.20
24224;DHT22;12359;49.716;9.212;2023-02-03T17:48:30;9.20;63.40
24224;DHT22;12359;49.716;9.212;2023-02-03T17:51:08;9.20;65.30
24224;DHT22;12359;49.716;9.212;2023-02-03T17:53:34;9.20;64.10
24224;DHT22;12359;49.716;9.212;2023-02-03T17:56:18;9.10;67.20
24224;DHT22;12359;49.716;9.212;2023-02-03T17:58:45;9.20;70.50
24224;DHT22;12359;49.716;9.212;2023-02-03T18:01:20;9.10;68.70
24224;DHT22;12359;49.716;9.212;2023-02-03T18:03:51;9.20;71.10
24224;DHT22;12359;49.716;9.212;2023-02-03T18:06:19;9.20;66.10
24224;DHT22;12359;49.716;9.212;2023-02-03T18:08:46;9.10;71.00
24224;DHT22;12359;49.716;9.212;2023-02-03T18:11:13;9.20;71.20
24224;DHT22;12359;49.716;9.212;2023-02-03T18:13:41;9.20;71.80
24224;DHT22;12359;49.716;9.212;2023-02-03T18:16:22;9.10;70.90
24224;DHT22;12359;49.716;9.212;2023-02-03T18:18:51;9.20;72.30
24224;DHT22;12359;49.716;9.212;2023-02-03T18:21:19;9.20;69.90
24224;DHT22;12359;49.716;9.212;2023-02-03T18:23:48;9.20;67.40
24224;DHT22;12359;49.716;9.212;2023-02-03T18:26:16;9.20;68.40
24224;DHT22;12359;49.716;9.212;2023-02-03T18:28:42;9.20;68.30